TimeEDT,TemperatureF,Dew PointF,Humidity,Sea Level PressureIn,VisibilityMPH,Wind Direction,Wind SpeedMPH,Gust SpeedMPH,PrecipitationIn,Events,Conditions,WindDirDegrees,DateUTC
12:53 AM,50.0,43.0,77,30.02,10.0,NNW,3.5,-,N/A,,Clear,330,2013-07-22 04:53:00
1:53 AM,48.0,43.0,83,30.02,10.0,WSW,3.5,-,N/A,,Clear,250,2013-07-22 05:53:00
2:53 AM,46.9,43.0,86,30.02,10.0,Calm,Calm,-,N/A,,Clear,0,2013-07-22 06:53:00
3:53 AM,46.9,44.1,90,30.02,10.0,WSW,3.5,-,N/A,,Clear,250,2013-07-22 07:53:00
4:53 AM,48.9,43.0,80,30.02,10.0,Calm,Calm,-,N/A,,Clear,0,2013-07-22 08:53:00
5:53 AM,46.0,44.1,93,30.03,10.0,Calm,Calm,-,N/A,,Clear,0,2013-07-22 09:53:00
6:53 AM,50.0,46.0,86,30.04,10.0,WSW,3.5,-,N/A,,Clear,250,2013-07-22 10:53:00
7:53 AM,54.0,46.9,77,30.05,10.0,Calm,Calm,-,N/A,,Clear,0,2013-07-22 11:53:00
8:53 AM,57.9,48.0,70,30.04,10.0,Calm,Calm,-,N/A,,Clear,0,2013-07-22 12:53:00
9:53 AM,64.0,45.0,50,30.03,10.0,Variable,5.8,-,N/A,,Clear,0,2013-07-22 13:53:00
10:53 AM,66.0,46.9,50,30.03,10.0,South,5.8,-,N/A,,Clear,190,2013-07-22 14:53:00
11:53 AM,69.1,43.0,39,30.01,10.0,WSW,9.2,-,N/A,,Scattered Clouds,250,2013-07-22 15:53:00
12:53 PM,70.0,41.0,35,30.00,10.0,Variable,3.5,-,N/A,,Clear,0,2013-07-22 16:53:00
1:53 PM,71.1,45.0,39,29.99,10.0,ESE,8.1,-,N/A,,Partly Cloudy,120,2013-07-22 17:53:00
2:53 PM,73.0,43.0,34,29.97,10.0,SW,5.8,-,N/A,,Clear,230,2013-07-22 18:53:00
3:53 PM,75.0,43.0,32,29.95,10.0,WSW,6.9,18.4,N/A,,Clear,240,2013-07-22 19:53:00
4:53 PM,73.9,44.1,34,29.93,10.0,WSW,8.1,16.1,N/A,,Clear,240,2013-07-22 20:53:00
5:53 PM,73.9,46.0,37,29.92,10.0,SW,4.6,-,N/A,,Clear,230,2013-07-22 21:53:00
6:53 PM,73.0,48.9,42,29.91,10.0,South,3.5,-,N/A,,Clear,180,2013-07-22 22:53:00
7:53 PM,70.0,48.9,47,29.91,10.0,South,3.5,-,N/A,,Clear,180,2013-07-22 23:53:00
8:53 PM,66.9,48.0,51,29.91,10.0,SSE,4.6,-,N/A,,Clear,160,2013-07-23 00:53:00
9:53 PM,64.9,48.9,56,29.91,10.0,SSE,5.8,-,N/A,,Clear,150,2013-07-23 01:53:00
10:53 PM,63.0,51.1,65,29.90,10.0,SSE,5.8,-,N/A,,Clear,150,2013-07-23 02:53:00
11:53 PM,63.0,53.1,70,29.89,10.0,SSE,8.1,-,N/A,,Clear,160,2013-07-23 03:53:00